createdAt,value
2023-05-05T00:01:25.486Z,10.00
2023-05-05T00:04:53.019Z,9.90
2023-05-05T00:08:20.030Z,10.80
2023-05-05T00:11:46.946Z,11.00
2023-05-05T00:15:14.127Z,10.60
2023-05-05T00:18:41.124Z,10.40
2023-05-05T00:22:07.944Z,9.60
2023-05-05T00:25:34.907Z,9.70
2023-05-05T00:29:01.964Z,9.40
2023-05-05T00:32:28.839Z,11.30
2023-05-05T00:35:55.873Z,10.50
2023-05-05T00:39:22.830Z,9.60
2023-05-05T00:42:51.703Z,10.40
2023-05-05T00:46:25.955Z,11.50
2023-05-05T00:49:53.424Z,9.60
2023-05-05T00:53:21.490Z,10.50
2023-05-05T00:56:49.047Z,9.20
2023-05-05T01:00:16.761Z,9.10
2023-05-05T01:03:43.886Z,9.70
2023-05-05T01:07:22.298Z,9.00
2023-05-05T01:10:59.793Z,9.50
2023-05-05T01:14:32.045Z,9.40
2023-05-05T01:18:07.706Z,9.10
2023-05-05T01:21:38.960Z,9.20
2023-05-05T01:25:40.450Z,9.30
2023-05-05T01:29:28.423Z,8.50
2023-05-05T01:32:59.103Z,8.70
2023-05-05T01:36:32.625Z,8.40
2023-05-05T01:40:05.285Z,9.80
2023-05-05T01:43:35.257Z,9.00
2023-05-05T01:47:03.946Z,9.00
2023-05-05T01:50:32.259Z,8.80
2023-05-05T01:54:00.972Z,8.70
2023-05-05T01:57:31.466Z,9.00
2023-05-05T02:01:00.220Z,7.70
2023-05-05T02:04:29.262Z,8.60
2023-05-05T02:08:00.098Z,7.90
2023-05-05T02:11:28.844Z,8.70
2023-05-05T02:14:58.838Z,7.80
2023-05-05T02:18:28.631Z,9.40
2023-05-05T02:25:21.084Z,8.10
2023-05-05T02:28:53.853Z,7.30
2023-05-05T02:32:25.039Z,7.80
2023-05-05T02:35:55.256Z,8.00
2023-05-05T02:39:31.804Z,7.30
2023-05-05T02:43:06.033Z,7.40
2023-05-05T02:46:34.002Z,7.60
2023-05-05T02:50:01.208Z,8.40
2023-05-05T02:53:30.356Z,7.70
2023-05-05T02:57:00.243Z,7.70
2023-05-05T03:00:39.698Z,7.70
2023-05-05T03:04:11.917Z,7.00
2023-05-05T03:07:54.988Z,7.10
2023-05-05T03:11:28.787Z,4.80
2023-05-05T03:14:59.141Z,6.40
2023-05-05T03:18:31.058Z,6.70
2023-05-05T03:22:00.776Z,5.90
2023-05-05T03:25:43.875Z,5.70
2023-05-05T03:29:12.498Z,6.10
2023-05-05T03:32:39.869Z,7.00
2023-05-05T03:36:08.200Z,5.70
2023-05-05T03:39:35.390Z,5.90
2023-05-05T03:43:03.629Z,6.20
2023-05-05T03:46:32.342Z,5.60
2023-05-05T03:50:00.730Z,5.90
2023-05-05T03:53:28.276Z,6.00
2023-05-05T03:56:56.103Z,5.30
2023-05-05T04:00:23.471Z,5.80
2023-05-05T04:03:50.466Z,6.00
2023-05-05T04:07:17.594Z,6.20
2023-05-05T04:10:44.707Z,6.20
2023-05-05T04:14:11.997Z,5.80
2023-05-05T04:17:39.306Z,6.20
2023-05-05T04:21:06.990Z,6.40
2023-05-05T04:24:34.083Z,6.90
2023-05-05T04:28:01.512Z,8.00
2023-05-05T04:31:28.988Z,6.60
2023-05-05T04:34:56.416Z,5.00
2023-05-05T04:38:23.926Z,6.10
2023-05-05T04:41:51.681Z,6.50
2023-05-05T04:45:19.428Z,5.80
2023-05-05T04:48:47.543Z,5.40
2023-05-05T04:52:16.199Z,4.70
2023-05-05T04:55:43.392Z,4.90
2023-05-05T04:59:10.375Z,4.90
2023-05-05T05:02:38.511Z,5.30
2023-05-05T05:06:06.050Z,5.50
2023-05-05T05:09:32.897Z,5.70
2023-05-05T05:12:59.909Z,5.30
2023-05-05T05:16:27.336Z,6.00
2023-05-05T05:19:55.246Z,4.80
2023-05-05T05:23:22.438Z,5.20
2023-05-05T05:26:49.425Z,5.90
2023-05-05T05:30:18.478Z,5.50
2023-05-05T05:33:45.570Z,5.50
2023-05-05T05:37:13.554Z,5.20
2023-05-05T05:40:41.357Z,5.00
2023-05-05T05:44:08.506Z,4.30
2023-05-05T05:47:35.678Z,4.40
2023-05-05T05:51:03.243Z,4.50
2023-05-05T05:54:32.816Z,4.50
2023-05-05T05:58:00.194Z,5.10
2023-05-05T06:01:27.810Z,4.80
2023-05-05T06:04:55.399Z,5.60
2023-05-05T06:08:24.805Z,4.70
2023-05-05T06:11:53.031Z,6.00
2023-05-05T06:15:21.482Z,4.30
2023-05-05T06:18:48.916Z,5.50
2023-05-05T06:22:16.537Z,5.40
2023-05-05T06:25:44.044Z,4.80
2023-05-05T06:29:12.423Z,5.80
2023-05-05T06:32:39.635Z,4.50
2023-05-05T06:36:07.421Z,5.70
2023-05-05T06:39:34.254Z,5.90
2023-05-05T06:43:01.012Z,5.60
2023-05-05T06:46:33.504Z,5.80
2023-05-05T06:50:00.596Z,5.50
2023-05-05T06:53:27.743Z,5.00
2023-05-05T06:56:54.669Z,5.40
2023-05-05T07:00:23.147Z,5.50
2023-05-05T07:03:50.152Z,5.20
2023-05-05T07:07:17.375Z,5.30
2023-05-05T07:10:44.314Z,4.80
2023-05-05T07:14:11.497Z,5.10
2023-05-05T07:17:38.690Z,5.20
2023-05-05T07:21:06.672Z,5.20
2023-05-05T07:24:33.491Z,4.80
2023-05-05T07:28:00.720Z,5.60
2023-05-05T07:31:27.681Z,5.50
2023-05-05T07:34:54.420Z,5.80
2023-05-05T07:38:21.209Z,6.00
2023-05-05T07:41:48.173Z,5.40
2023-05-05T07:45:15.386Z,5.50
2023-05-05T07:48:42.193Z,5.30
2023-05-05T07:52:09.210Z,5.50
2023-05-05T07:55:36.299Z,5.20
2023-05-05T07:59:03.258Z,4.90
2023-05-05T08:02:30.552Z,6.20
2023-05-05T08:06:06.894Z,5.90
2023-05-05T08:09:33.885Z,5.10
2023-05-05T08:13:02.252Z,5.50
2023-05-05T08:16:30.525Z,5.60
2023-05-05T08:19:57.643Z,4.40
2023-05-05T08:23:24.797Z,4.60
2023-05-05T08:26:51.767Z,6.00
2023-05-05T08:30:21.379Z,5.80
2023-05-05T08:33:48.402Z,4.70
2023-05-05T08:37:15.324Z,6.00
2023-05-05T08:40:42.571Z,6.30
2023-05-05T08:44:11.332Z,4.60
2023-05-05T08:47:39.051Z,5.80
2023-05-05T08:51:07.920Z,5.90
2023-05-05T08:54:38.936Z,5.70
2023-05-05T08:58:06.320Z,4.90
2023-05-05T09:01:34.157Z,6.00
2023-05-05T09:05:05.324Z,5.60
2023-05-05T09:08:33.067Z,5.20
2023-05-05T09:12:01.987Z,4.80
2023-05-05T09:15:29.803Z,5.00
2023-05-05T09:19:06.428Z,5.10
2023-05-05T09:22:41.654Z,5.40
2023-05-05T09:26:11.639Z,5.10
2023-05-05T09:29:39.983Z,5.50
2023-05-05T09:33:08.748Z,5.60
2023-05-05T09:36:47.755Z,5.60
2023-05-05T09:40:16.573Z,6.80
2023-05-05T09:43:53.393Z,6.10
2023-05-05T09:47:29.613Z,5.80
2023-05-05T09:50:57.418Z,5.60
2023-05-05T09:54:29.042Z,5.40
2023-05-05T09:57:56.247Z,6.20
2023-05-05T10:01:25.739Z,5.70
2023-05-05T10:05:05.317Z,6.80
2023-05-05T10:08:34.235Z,5.50
2023-05-05T10:12:02.468Z,6.90
2023-05-05T10:15:29.833Z,6.30
2023-05-05T10:18:58.287Z,6.10
2023-05-05T10:22:26.374Z,6.60
2023-05-05T10:26:02.047Z,6.00
2023-05-05T10:29:43.144Z,7.10
2023-05-05T10:33:30.990Z,6.80
2023-05-05T10:37:00.858Z,6.30
2023-05-05T10:40:28.077Z,6.70
2023-05-05T10:43:56.497Z,5.90
2023-05-05T10:47:24.819Z,6.30
2023-05-05T10:51:00.224Z,6.80
2023-05-05T10:54:37.838Z,7.30
2023-05-05T10:58:05.122Z,6.90
2023-05-05T11:01:34.610Z,6.70
2023-05-05T11:05:17.953Z,7.40
2023-05-05T11:08:46.163Z,6.80
2023-05-05T11:12:13.988Z,6.70
2023-05-05T11:15:41.681Z,7.30
2023-05-05T11:19:48.399Z,6.50
2023-05-05T11:23:28.113Z,7.00
2023-05-05T11:30:20.774Z,6.70
2023-05-05T11:33:48.028Z,6.10
2023-05-05T11:37:16.753Z,7.60
2023-05-05T11:40:47.135Z,7.10
2023-05-05T11:44:16.321Z,7.30
2023-05-05T11:47:43.860Z,7.20
2023-05-05T11:51:14.953Z,6.50
2023-05-05T11:54:47.760Z,6.20
2023-05-05T11:58:22.623Z,6.70
2023-05-05T12:01:50.051Z,6.50
2023-05-05T12:05:23.433Z,6.40
2023-05-05T12:08:51.376Z,6.00
2023-05-05T12:12:19.294Z,6.70
2023-05-05T12:15:46.749Z,6.80
2023-05-05T12:19:14.556Z,5.80
2023-05-05T12:22:42.335Z,6.40
2023-05-05T12:26:09.454Z,6.80
2023-05-05T12:29:36.408Z,5.90
2023-05-05T12:33:07.823Z,5.80
2023-05-05T12:36:35.784Z,6.20
2023-05-05T12:40:03.932Z,6.50
2023-05-05T12:43:35.611Z,5.50
2023-05-05T12:47:03.114Z,6.50
2023-05-05T12:50:35.872Z,6.20
2023-05-05T12:54:07.298Z,4.70
2023-05-05T12:57:34.331Z,5.40
2023-05-05T13:01:14.378Z,7.70
2023-05-05T13:04:51.797Z,5.70
2023-05-05T13:08:18.910Z,5.80
2023-05-05T13:11:45.751Z,7.20
2023-05-05T13:15:14.994Z,7.30
2023-05-05T13:18:48.435Z,5.90
2023-05-05T13:22:15.844Z,5.50
2023-05-05T13:25:42.708Z,5.70
2023-05-05T13:29:09.587Z,5.90
2023-05-05T13:32:36.845Z,5.70
2023-05-05T13:36:04.965Z,6.40
2023-05-05T13:39:31.951Z,5.30
2023-05-05T13:42:58.845Z,6.90
2023-05-05T13:46:26.292Z,5.60
2023-05-05T13:49:53.369Z,6.30
2023-05-05T13:53:20.433Z,6.10
2023-05-05T13:56:47.466Z,5.70
2023-05-05T14:00:17.175Z,5.90
2023-05-05T14:03:44.210Z,5.70
2023-05-05T14:07:11.190Z,6.10
2023-05-05T14:10:38.450Z,5.90
2023-05-05T14:14:06.221Z,5.20
2023-05-05T14:17:33.318Z,5.60
2023-05-05T14:21:00.171Z,6.00
2023-05-05T14:24:27.306Z,8.20
2023-05-05T14:27:54.642Z,8.60
2023-05-05T14:31:21.591Z,6.20
2023-05-05T14:34:50.420Z,5.70
2023-05-05T14:38:17.784Z,6.10
2023-05-05T14:41:44.923Z,7.50
2023-05-05T14:45:13.359Z,5.40
2023-05-05T14:48:40.558Z,5.90
2023-05-05T14:52:07.458Z,6.10
2023-05-05T14:55:34.929Z,6.30
2023-05-05T14:59:01.783Z,7.00
2023-05-05T15:02:28.880Z,6.60
2023-05-05T15:05:56.194Z,5.60
2023-05-05T15:09:23.177Z,5.50
2023-05-05T15:12:51.201Z,5.80
2023-05-05T15:16:18.292Z,7.40
2023-05-05T15:19:45.699Z,7.50
2023-05-05T15:23:12.670Z,7.20
2023-05-05T15:26:39.626Z,5.80
2023-05-05T15:30:08.397Z,6.60
2023-05-05T15:33:35.254Z,6.30
2023-05-05T15:37:02.214Z,5.90
2023-05-05T15:40:29.433Z,6.00
2023-05-05T15:43:57.071Z,6.30
2023-05-05T15:47:24.047Z,7.20
2023-05-05T15:50:51.086Z,5.40
2023-05-05T15:54:18.236Z,6.00
2023-05-05T15:57:45.061Z,7.50
2023-05-05T16:01:12.067Z,7.40
2023-05-05T16:04:41.996Z,6.60
2023-05-05T16:08:10.422Z,6.30
2023-05-05T16:11:38.357Z,8.10
2023-05-05T16:15:05.577Z,5.10
2023-05-05T16:18:32.539Z,6.00
2023-05-05T16:21:59.722Z,7.20
2023-05-05T16:25:26.838Z,7.30
2023-05-05T16:28:53.753Z,8.30
2023-05-05T16:32:20.581Z,6.50
2023-05-05T16:35:47.643Z,5.70
2023-05-05T16:39:14.826Z,5.20
2023-05-05T16:42:44.239Z,6.50
2023-05-05T16:49:36.887Z,5.80
2023-05-05T16:53:03.877Z,5.60
2023-05-05T16:56:30.820Z,6.70
2023-05-05T16:59:59.057Z,7.90
2023-05-05T17:03:26.468Z,8.40
2023-05-05T17:06:55.082Z,5.30
2023-05-05T17:10:22.158Z,5.90
2023-05-05T17:13:49.326Z,6.00
2023-05-05T17:17:16.590Z,5.60
2023-05-05T17:20:43.936Z,5.80
2023-05-05T17:24:11.626Z,5.90
2023-05-05T17:27:38.989Z,5.80
2023-05-05T17:31:08.228Z,4.20
2023-05-05T17:34:37.925Z,6.00
2023-05-05T17:38:07.055Z,5.40
2023-05-05T17:41:37.068Z,6.40
2023-05-05T17:45:09.663Z,4.70
2023-05-05T17:48:41.685Z,5.90
2023-05-05T17:52:12.692Z,4.90
2023-05-05T17:55:41.717Z,6.00
2023-05-05T17:59:11.196Z,5.10
2023-05-05T18:02:39.853Z,5.90
2023-05-05T18:06:11.002Z,5.60
2023-05-05T18:09:39.873Z,5.20
2023-05-05T18:13:07.621Z,5.50
2023-05-05T18:16:35.324Z,5.10
2023-05-05T18:20:02.760Z,6.20
2023-05-05T18:23:30.648Z,5.40
2023-05-05T18:26:58.720Z,5.50
2023-05-05T18:30:28.781Z,4.90
2023-05-05T18:33:57.314Z,4.90
2023-05-05T18:37:24.622Z,4.50
2023-05-05T18:40:52.109Z,6.00
2023-05-05T18:44:19.513Z,4.80
2023-05-05T18:47:49.656Z,4.80
2023-05-05T18:51:17.305Z,5.10
2023-05-05T18:54:44.641Z,5.50
2023-05-05T18:58:12.769Z,6.50
2023-05-05T19:01:41.844Z,5.40
2023-05-05T19:05:12.196Z,6.70
2023-05-05T19:08:39.540Z,6.10
2023-05-05T19:12:07.488Z,5.40
2023-05-05T19:15:34.475Z,4.50
2023-05-05T19:19:01.325Z,6.30
2023-05-05T19:22:29.406Z,7.20
2023-05-05T19:25:56.491Z,6.50
2023-05-05T19:29:23.404Z,5.50
2023-05-05T19:32:50.378Z,5.20
2023-05-05T19:36:19.168Z,5.10
2023-05-05T19:39:46.080Z,5.70
2023-05-05T19:43:12.813Z,5.40
2023-05-05T19:46:40.003Z,5.20
2023-05-05T19:50:08.364Z,5.00
2023-05-05T19:53:35.809Z,5.00
2023-05-05T19:57:02.773Z,4.80
2023-05-05T20:00:29.864Z,5.60
2023-05-05T20:03:58.308Z,5.60
2023-05-05T20:07:26.010Z,6.50
2023-05-05T20:10:53.061Z,6.10
2023-05-05T20:14:20.027Z,5.80
2023-05-05T20:17:47.915Z,5.20
2023-05-05T20:21:15.361Z,6.40
2023-05-05T20:24:42.731Z,5.50
2023-05-05T20:28:09.947Z,5.10
2023-05-05T20:31:38.228Z,6.10
2023-05-05T20:35:06.240Z,5.50
2023-05-05T20:38:33.007Z,5.30
2023-05-05T20:41:59.727Z,5.00
2023-05-05T20:45:26.647Z,5.50
2023-05-05T20:48:53.685Z,4.90
2023-05-05T20:52:20.909Z,5.80
2023-05-05T20:55:48.045Z,5.80
2023-05-05T20:59:15.155Z,5.20
2023-05-05T21:02:42.389Z,5.00
2023-05-05T21:06:09.578Z,5.20
2023-05-05T21:09:37.015Z,6.10
2023-05-05T21:13:04.315Z,5.90
2023-05-05T21:16:31.605Z,5.30
2023-05-05T21:19:58.835Z,5.40
2023-05-05T21:23:26.166Z,5.50
2023-05-05T21:26:53.212Z,6.10
2023-05-05T21:30:19.926Z,5.60
2023-05-05T21:33:47.508Z,5.90
2023-05-05T21:37:14.991Z,5.40
2023-05-05T21:40:41.880Z,4.50
2023-05-05T21:44:09.030Z,4.90
2023-05-05T21:47:36.043Z,4.80
2023-05-05T21:51:03.024Z,4.60
2023-05-05T21:54:30.456Z,5.10
2023-05-05T21:57:57.540Z,5.10
2023-05-05T22:01:24.668Z,5.10
2023-05-05T22:04:53.522Z,5.80
2023-05-05T22:08:20.557Z,5.80
2023-05-05T22:11:47.667Z,5.30
2023-05-05T22:15:19.920Z,5.60
2023-05-05T22:18:47.157Z,5.30
2023-05-05T22:22:14.407Z,5.30
2023-05-05T22:25:41.413Z,5.80
2023-05-05T22:29:08.722Z,5.50
2023-05-05T22:32:35.798Z,6.20
2023-05-05T22:36:02.871Z,6.60
2023-05-05T22:39:29.930Z,7.90
2023-05-05T22:42:57.088Z,7.60
2023-05-05T22:46:24.182Z,7.20
2023-05-05T22:49:51.156Z,7.10
2023-05-05T22:53:18.333Z,6.50
2023-05-05T22:56:45.385Z,7.80
2023-05-05T23:00:14.751Z,8.10
2023-05-05T23:03:41.743Z,7.50
2023-05-05T23:07:08.667Z,7.50
2023-05-05T23:10:35.468Z,7.00
2023-05-05T23:14:02.446Z,6.70
2023-05-05T23:17:29.468Z,7.30
2023-05-05T23:20:56.403Z,7.50
2023-05-05T23:24:23.457Z,7.20
2023-05-05T23:27:50.620Z,7.50
2023-05-05T23:31:17.500Z,6.30
2023-05-05T23:34:44.664Z,6.20
2023-05-05T23:38:11.592Z,6.90
2023-05-05T23:41:38.836Z,5.70
2023-05-05T23:45:06.288Z,7.00
2023-05-05T23:48:33.431Z,6.80
2023-05-05T23:52:00.666Z,6.20
2023-05-05T23:55:27.837Z,6.50
2023-05-05T23:58:55.340Z,6.40
